sensor_id;sensor_type;location;lat;lon;timestamp;P1;durP1;ratioP1;P2;durP2;ratioP2
20421;SDS011;10370;53.102;18.034;2023-05-16T00:04:37;19.33;;;12.52;;
20421;SDS011;10370;53.102;18.034;2023-05-16T00:09:59;20.70;;;12.68;;
20421;SDS011;10370;53.102;18.034;2023-05-16T00:15:22;15.77;;;11.63;;
20421;SDS011;10370;53.102;18.034;2023-05-16T00:20:44;16.10;;;12.25;;
20421;SDS011;10370;53.102;18.034;2023-05-16T00:26:05;14.88;;;11.88;;
20421;SDS011;10370;53.102;18.034;2023-05-16T00:31:28;16.70;;;11.63;;
20421;SDS011;10370;53.102;18.034;2023-05-16T00:36:52;19.40;;;12.07;;
20421;SDS011;10370;53.102;18.034;2023-05-16T00:42:20;17.77;;;12.05;;
20421;SDS011;10370;53.102;18.034;2023-05-16T00:47:43;19.83;;;13.23;;
20421;SDS011;10370;53.102;18.034;2023-05-16T00:53:08;18.27;;;12.65;;
20421;SDS011;10370;53.102;18.034;2023-05-16T00:58:33;16.83;;;12.20;;
20421;SDS011;10370;53.102;18.034;2023-05-16T01:03:56;17.33;;;12.93;;
20421;SDS011;10370;53.102;18.034;2023-05-16T01:09:20;18.17;;;12.32;;
20421;SDS011;10370;53.102;18.034;2023-05-16T01:14:53;18.52;;;13.00;;
20421;SDS011;10370;53.102;18.034;2023-05-16T01:20:40;18.67;;;13.40;;
20421;SDS011;10370;53.102;18.034;2023-05-16T01:31:33;16.90;;;12.98;;
20421;SDS011;10370;53.102;18.034;2023-05-16T01:42:38;20.20;;;12.90;;
20421;SDS011;10370;53.102;18.034;2023-05-16T01:48:07;18.70;;;12.95;;
20421;SDS011;10370;53.102;18.034;2023-05-16T01:53:42;16.08;;;12.13;;
20421;SDS011;10370;53.102;18.034;2023-05-16T01:59:05;19.65;;;12.80;;
20421;SDS011;10370;53.102;18.034;2023-05-16T02:04:30;15.68;;;11.80;;
20421;SDS011;10370;53.102;18.034;2023-05-16T02:09:53;14.38;;;10.85;;
20421;SDS011;10370;53.102;18.034;2023-05-16T02:15:16;14.32;;;10.15;;
20421;SDS011;10370;53.102;18.034;2023-05-16T02:20:39;15.27;;;9.55;;
20421;SDS011;10370;53.102;18.034;2023-05-16T02:26:04;14.68;;;9.00;;
20421;SDS011;10370;53.102;18.034;2023-05-16T02:31:27;12.98;;;8.55;;
20421;SDS011;10370;53.102;18.034;2023-05-16T02:36:51;11.02;;;7.07;;
20421;SDS011;10370;53.102;18.034;2023-05-16T02:42:14;8.60;;;6.50;;
20421;SDS011;10370;53.102;18.034;2023-05-16T02:47:37;7.60;;;5.65;;
20421;SDS011;10370;53.102;18.034;2023-05-16T02:53:00;8.25;;;5.85;;
20421;SDS011;10370;53.102;18.034;2023-05-16T02:58:25;7.25;;;5.32;;
20421;SDS011;10370;53.102;18.034;2023-05-16T03:03:50;7.93;;;5.82;;
20421;SDS011;10370;53.102;18.034;2023-05-16T03:09:13;8.10;;;5.60;;
20421;SDS011;10370;53.102;18.034;2023-05-16T03:14:37;7.38;;;4.72;;
20421;SDS011;10370;53.102;18.034;2023-05-16T03:20:00;7.88;;;4.80;;
20421;SDS011;10370;53.102;18.034;2023-05-16T03:25:20;9.55;;;4.95;;
20421;SDS011;10370;53.102;18.034;2023-05-16T03:30:43;5.05;;;4.43;;
20421;SDS011;10370;53.102;18.034;2023-05-16T03:36:05;5.47;;;4.25;;
20421;SDS011;10370;53.102;18.034;2023-05-16T03:41:28;5.85;;;4.50;;
20421;SDS011;10370;53.102;18.034;2023-05-16T03:46:49;4.45;;;3.92;;
20421;SDS011;10370;53.102;18.034;2023-05-16T03:52:12;5.45;;;4.18;;
20421;SDS011;10370;53.102;18.034;2023-05-16T03:57:35;5.43;;;4.18;;
20421;SDS011;10370;53.102;18.034;2023-05-16T04:03:00;7.85;;;4.40;;
20421;SDS011;10370;53.102;18.034;2023-05-16T04:08:23;6.43;;;3.92;;
20421;SDS011;10370;53.102;18.034;2023-05-16T04:13:45;7.43;;;4.10;;
20421;SDS011;10370;53.102;18.034;2023-05-16T04:19:06;4.45;;;3.80;;
20421;SDS011;10370;53.102;18.034;2023-05-16T04:24:29;3.70;;;3.28;;
20421;SDS011;10370;53.102;18.034;2023-05-16T04:29:53;5.88;;;3.08;;
20421;SDS011;10370;53.102;18.034;2023-05-16T04:35:19;5.22;;;3.97;;
20421;SDS011;10370;53.102;18.034;2023-05-16T04:40:44;4.53;;;3.70;;
20421;SDS011;10370;53.102;18.034;2023-05-16T04:46:10;6.20;;;3.60;;
20421;SDS011;10370;53.102;18.034;2023-05-16T04:51:34;3.60;;;3.10;;
20421;SDS011;10370;53.102;18.034;2023-05-16T04:56:58;4.35;;;3.50;;
20421;SDS011;10370;53.102;18.034;2023-05-16T05:02:21;7.50;;;3.70;;
20421;SDS011;10370;53.102;18.034;2023-05-16T05:07:42;5.85;;;3.30;;
20421;SDS011;10370;53.102;18.034;2023-05-16T05:13:05;4.80;;;3.78;;
20421;SDS011;10370;53.102;18.034;2023-05-16T05:18:27;5.30;;;4.05;;
20421;SDS011;10370;53.102;18.034;2023-05-16T05:23:52;8.82;;;4.25;;
20421;SDS011;10370;53.102;18.034;2023-05-16T05:29:15;4.88;;;4.20;;
20421;SDS011;10370;53.102;18.034;2023-05-16T05:34:41;5.70;;;4.25;;
20421;SDS011;10370;53.102;18.034;2023-05-16T05:40:04;6.68;;;4.68;;
20421;SDS011;10370;53.102;18.034;2023-05-16T05:45:28;8.25;;;5.18;;
20421;SDS011;10370;53.102;18.034;2023-05-16T05:50:50;8.18;;;5.60;;
20421;SDS011;10370;53.102;18.034;2023-05-16T05:56:12;8.38;;;5.78;;
20421;SDS011;10370;53.102;18.034;2023-05-16T06:01:33;7.80;;;5.63;;
20421;SDS011;10370;53.102;18.034;2023-05-16T06:06:54;9.68;;;5.53;;
20421;SDS011;10370;53.102;18.034;2023-05-16T06:12:15;11.48;;;6.20;;
20421;SDS011;10370;53.102;18.034;2023-05-16T06:17:36;8.35;;;5.95;;
20421;SDS011;10370;53.102;18.034;2023-05-16T06:23:00;11.82;;;6.43;;
20421;SDS011;10370;53.102;18.034;2023-05-16T06:28:25;9.05;;;6.15;;
20421;SDS011;10370;53.102;18.034;2023-05-16T06:33:51;7.25;;;5.65;;
20421;SDS011;10370;53.102;18.034;2023-05-16T06:39:12;11.38;;;5.78;;
20421;SDS011;10370;53.102;18.034;2023-05-16T06:44:35;6.68;;;5.57;;
20421;SDS011;10370;53.102;18.034;2023-05-16T06:49:56;7.30;;;5.50;;
20421;SDS011;10370;53.102;18.034;2023-05-16T06:55:19;8.18;;;5.40;;
20421;SDS011;10370;53.102;18.034;2023-05-16T07:00:41;6.88;;;5.30;;
20421;SDS011;10370;53.102;18.034;2023-05-16T07:06:04;9.20;;;6.18;;
20421;SDS011;10370;53.102;18.034;2023-05-16T07:11:25;8.48;;;6.03;;
20421;SDS011;10370;53.102;18.034;2023-05-16T07:16:49;8.25;;;6.15;;
20421;SDS011;10370;53.102;18.034;2023-05-16T07:22:11;7.43;;;5.97;;
20421;SDS011;10370;53.102;18.034;2023-05-16T07:27:33;7.57;;;6.00;;
20421;SDS011;10370;53.102;18.034;2023-05-16T07:32:54;7.95;;;6.10;;
20421;SDS011;10370;53.102;18.034;2023-05-16T07:38:21;10.73;;;5.88;;
20421;SDS011;10370;53.102;18.034;2023-05-16T07:43:47;7.50;;;5.90;;
20421;SDS011;10370;53.102;18.034;2023-05-16T07:49:08;8.17;;;6.03;;
20421;SDS011;10370;53.102;18.034;2023-05-16T07:54:34;6.68;;;5.95;;
20421;SDS011;10370;53.102;18.034;2023-05-16T07:59:56;7.72;;;5.65;;
20421;SDS011;10370;53.102;18.034;2023-05-16T08:05:20;7.97;;;5.88;;
20421;SDS011;10370;53.102;18.034;2023-05-16T08:10:43;7.55;;;5.93;;
20421;SDS011;10370;53.102;18.034;2023-05-16T08:16:05;6.95;;;5.65;;
20421;SDS011;10370;53.102;18.034;2023-05-16T08:21:29;7.22;;;5.75;;
20421;SDS011;10370;53.102;18.034;2023-05-16T08:26:52;8.60;;;5.53;;
20421;SDS011;10370;53.102;18.034;2023-05-16T08:32:13;6.55;;;5.13;;
20421;SDS011;10370;53.102;18.034;2023-05-16T08:37:35;7.60;;;5.25;;
20421;SDS011;10370;53.102;18.034;2023-05-16T08:42:58;6.80;;;5.25;;
20421;SDS011;10370;53.102;18.034;2023-05-16T08:48:22;6.43;;;5.50;;
20421;SDS011;10370;53.102;18.034;2023-05-16T08:53:51;7.03;;;4.78;;
20421;SDS011;10370;53.102;18.034;2023-05-16T08:59:17;6.82;;;5.40;;
20421;SDS011;10370;53.102;18.034;2023-05-16T09:04:38;8.25;;;4.60;;
20421;SDS011;10370;53.102;18.034;2023-05-16T09:10:00;13.70;;;4.68;;
20421;SDS011;10370;53.102;18.034;2023-05-16T09:15:29;6.25;;;4.32;;
20421;SDS011;10370;53.102;18.034;2023-05-16T09:20:52;6.97;;;4.88;;
20421;SDS011;10370;53.102;18.034;2023-05-16T09:26:14;8.00;;;4.68;;
20421;SDS011;10370;53.102;18.034;2023-05-16T09:31:35;6.80;;;5.07;;
20421;SDS011;10370;53.102;18.034;2023-05-16T09:37:00;6.45;;;4.85;;
20421;SDS011;10370;53.102;18.034;2023-05-16T09:42:24;6.97;;;5.18;;
20421;SDS011;10370;53.102;18.034;2023-05-16T09:47:46;9.52;;;4.97;;
20421;SDS011;10370;53.102;18.034;2023-05-16T09:53:09;6.25;;;4.45;;
20421;SDS011;10370;53.102;18.034;2023-05-16T09:58:34;5.88;;;4.20;;
20421;SDS011;10370;53.102;18.034;2023-05-16T10:03:56;5.88;;;4.78;;
20421;SDS011;10370;53.102;18.034;2023-05-16T10:09:18;6.93;;;4.05;;
20421;SDS011;10370;53.102;18.034;2023-05-16T10:14:43;6.07;;;4.40;;
20421;SDS011;10370;53.102;18.034;2023-05-16T10:20:13;6.32;;;4.43;;
20421;SDS011;10370;53.102;18.034;2023-05-16T10:25:38;5.47;;;4.32;;
20421;SDS011;10370;53.102;18.034;2023-05-16T10:31:03;8.35;;;4.35;;
20421;SDS011;10370;53.102;18.034;2023-05-16T10:36:27;6.78;;;4.60;;
20421;SDS011;10370;53.102;18.034;2023-05-16T10:41:48;6.68;;;5.15;;
20421;SDS011;10370;53.102;18.034;2023-05-16T10:47:10;6.75;;;4.57;;
20421;SDS011;10370;53.102;18.034;2023-05-16T10:52:32;6.95;;;4.60;;
20421;SDS011;10370;53.102;18.034;2023-05-16T10:57:54;10.20;;;5.15;;
20421;SDS011;10370;53.102;18.034;2023-05-16T11:03:21;5.82;;;5.00;;
20421;SDS011;10370;53.102;18.034;2023-05-16T11:14:48;6.00;;;5.15;;
20421;SDS011;10370;53.102;18.034;2023-05-16T11:20:24;7.55;;;4.90;;
20421;SDS011;10370;53.102;18.034;2023-05-16T11:25:51;8.38;;;4.88;;
20421;SDS011;10370;53.102;18.034;2023-05-16T11:31:16;6.32;;;5.00;;
20421;SDS011;10370;53.102;18.034;2023-05-16T11:36:42;6.50;;;5.57;;
20421;SDS011;10370;53.102;18.034;2023-05-16T11:42:03;5.95;;;5.38;;
20421;SDS011;10370;53.102;18.034;2023-05-16T11:47:29;7.20;;;5.60;;
20421;SDS011;10370;53.102;18.034;2023-05-16T11:52:52;8.60;;;5.80;;
20421;SDS011;10370;53.102;18.034;2023-05-16T11:58:16;6.25;;;5.38;;
20421;SDS011;10370;53.102;18.034;2023-05-16T12:03:39;8.77;;;5.97;;
20421;SDS011;10370;53.102;18.034;2023-05-16T12:09:06;6.60;;;5.90;;
20421;SDS011;10370;53.102;18.034;2023-05-16T12:14:31;9.13;;;6.15;;
20421;SDS011;10370;53.102;18.034;2023-05-16T12:19:52;7.35;;;6.53;;
20421;SDS011;10370;53.102;18.034;2023-05-16T12:25:20;8.52;;;6.65;;
20421;SDS011;10370;53.102;18.034;2023-05-16T12:30:45;7.32;;;6.60;;
20421;SDS011;10370;53.102;18.034;2023-05-16T12:36:11;7.40;;;6.07;;
20421;SDS011;10370;53.102;18.034;2023-05-16T12:41:39;8.90;;;6.60;;
20421;SDS011;10370;53.102;18.034;2023-05-16T12:47:03;8.77;;;6.07;;
20421;SDS011;10370;53.102;18.034;2023-05-16T12:52:32;6.20;;;5.60;;
20421;SDS011;10370;53.102;18.034;2023-05-16T12:57:55;7.60;;;6.20;;
20421;SDS011;10370;53.102;18.034;2023-05-16T13:03:20;10.13;;;6.53;;
20421;SDS011;10370;53.102;18.034;2023-05-16T13:08:43;9.15;;;7.20;;
20421;SDS011;10370;53.102;18.034;2023-05-16T13:14:11;13.20;;;8.45;;
20421;SDS011;10370;53.102;18.034;2023-05-16T13:19:34;10.43;;;7.53;;
20421;SDS011;10370;53.102;18.034;2023-05-16T13:24:55;12.18;;;7.78;;
20421;SDS011;10370;53.102;18.034;2023-05-16T13:30:20;11.43;;;8.52;;
20421;SDS011;10370;53.102;18.034;2023-05-16T13:35:44;12.80;;;9.18;;
20421;SDS011;10370;53.102;18.034;2023-05-16T13:41:08;14.50;;;9.30;;
20421;SDS011;10370;53.102;18.034;2023-05-16T13:46:33;13.63;;;8.95;;
20421;SDS011;10370;53.102;18.034;2023-05-16T13:51:56;9.25;;;8.20;;
20421;SDS011;10370;53.102;18.034;2023-05-16T13:57:21;11.07;;;7.90;;
20421;SDS011;10370;53.102;18.034;2023-05-16T14:02:42;10.73;;;7.30;;
20421;SDS011;10370;53.102;18.034;2023-05-16T14:08:06;8.40;;;6.90;;
20421;SDS011;10370;53.102;18.034;2023-05-16T14:13:30;14.07;;;7.97;;
20421;SDS011;10370;53.102;18.034;2023-05-16T14:18:53;12.43;;;7.75;;
20421;SDS011;10370;53.102;18.034;2023-05-16T14:24:14;10.32;;;7.75;;
20421;SDS011;10370;53.102;18.034;2023-05-16T14:29:37;18.30;;;8.43;;
20421;SDS011;10370;53.102;18.034;2023-05-16T14:35:01;11.90;;;8.07;;
20421;SDS011;10370;53.102;18.034;2023-05-16T14:40:25;12.93;;;8.75;;
20421;SDS011;10370;53.102;18.034;2023-05-16T14:45:51;12.57;;;9.23;;
20421;SDS011;10370;53.102;18.034;2023-05-16T14:51:15;13.93;;;9.00;;
20421;SDS011;10370;53.102;18.034;2023-05-16T14:56:38;13.02;;;9.75;;
20421;SDS011;10370;53.102;18.034;2023-05-16T15:02:01;12.57;;;9.48;;
20421;SDS011;10370;53.102;18.034;2023-05-16T15:07:24;12.30;;;9.55;;
20421;SDS011;10370;53.102;18.034;2023-05-16T15:12:45;15.80;;;10.45;;
20421;SDS011;10370;53.102;18.034;2023-05-16T15:18:07;15.75;;;10.77;;
20421;SDS011;10370;53.102;18.034;2023-05-16T15:23:31;14.90;;;10.07;;
20421;SDS011;10370;53.102;18.034;2023-05-16T15:28:55;17.08;;;11.45;;
20421;SDS011;10370;53.102;18.034;2023-05-16T15:34:17;14.88;;;10.40;;
20421;SDS011;10370;53.102;18.034;2023-05-16T15:39:40;17.83;;;11.93;;
20421;SDS011;10370;53.102;18.034;2023-05-16T15:45:02;15.45;;;12.02;;
20421;SDS011;10370;53.102;18.034;2023-05-16T15:50:28;19.70;;;12.90;;
20421;SDS011;10370;53.102;18.034;2023-05-16T15:55:53;20.42;;;12.20;;
20421;SDS011;10370;53.102;18.034;2023-05-16T16:01:15;21.63;;;13.35;;
20421;SDS011;10370;53.102;18.034;2023-05-16T16:06:39;19.60;;;12.68;;
20421;SDS011;10370;53.102;18.034;2023-05-16T16:12:03;18.90;;;12.40;;
20421;SDS011;10370;53.102;18.034;2023-05-16T16:17:25;20.05;;;12.98;;
20421;SDS011;10370;53.102;18.034;2023-05-16T16:22:49;22.08;;;13.23;;
20421;SDS011;10370;53.102;18.034;2023-05-16T16:28:13;19.15;;;13.80;;
20421;SDS011;10370;53.102;18.034;2023-05-16T16:33:38;22.48;;;14.60;;
20421;SDS011;10370;53.102;18.034;2023-05-16T16:39:01;20.88;;;13.57;;
20421;SDS011;10370;53.102;18.034;2023-05-16T16:44:25;22.98;;;13.88;;
20421;SDS011;10370;53.102;18.034;2023-05-16T16:49:52;19.27;;;12.73;;
20421;SDS011;10370;53.102;18.034;2023-05-16T16:55:14;20.30;;;13.63;;
20421;SDS011;10370;53.102;18.034;2023-05-16T17:00:36;18.73;;;13.10;;
20421;SDS011;10370;53.102;18.034;2023-05-16T17:05:58;21.88;;;14.07;;
20421;SDS011;10370;53.102;18.034;2023-05-16T17:11:21;23.38;;;13.65;;
20421;SDS011;10370;53.102;18.034;2023-05-16T17:16:44;22.33;;;13.93;;
20421;SDS011;10370;53.102;18.034;2023-05-16T17:22:08;20.50;;;13.75;;
20421;SDS011;10370;53.102;18.034;2023-05-16T17:27:32;20.65;;;13.77;;
20421;SDS011;10370;53.102;18.034;2023-05-16T17:32:58;22.60;;;14.40;;
20421;SDS011;10370;53.102;18.034;2023-05-16T17:38:22;21.48;;;13.68;;
20421;SDS011;10370;53.102;18.034;2023-05-16T17:43:49;21.83;;;14.98;;
20421;SDS011;10370;53.102;18.034;2023-05-16T17:49:13;24.73;;;15.82;;
20421;SDS011;10370;53.102;18.034;2023-05-16T17:54:40;28.27;;;15.63;;
20421;SDS011;10370;53.102;18.034;2023-05-16T18:00:06;25.00;;;15.07;;
20421;SDS011;10370;53.102;18.034;2023-05-16T18:05:29;26.65;;;15.65;;
20421;SDS011;10370;53.102;18.034;2023-05-16T18:10:56;29.63;;;16.55;;
20421;SDS011;10370;53.102;18.034;2023-05-16T18:16:23;31.08;;;16.25;;
20421;SDS011;10370;53.102;18.034;2023-05-16T18:21:46;27.90;;;15.70;;
20421;SDS011;10370;53.102;18.034;2023-05-16T18:27:11;31.50;;;16.98;;
20421;SDS011;10370;53.102;18.034;2023-05-16T18:32:35;32.55;;;15.75;;
20421;SDS011;10370;53.102;18.034;2023-05-16T18:37:58;27.75;;;14.95;;
20421;SDS011;10370;53.102;18.034;2023-05-16T18:43:39;32.90;;;15.95;;
20421;SDS011;10370;53.102;18.034;2023-05-16T18:49:07;35.40;;;17.92;;
20421;SDS011;10370;53.102;18.034;2023-05-16T18:54:31;57.55;;;27.95;;
20421;SDS011;10370;53.102;18.034;2023-05-16T18:59:54;53.80;;;23.15;;
20421;SDS011;10370;53.102;18.034;2023-05-16T19:05:24;25.60;;;14.32;;
20421;SDS011;10370;53.102;18.034;2023-05-16T19:16:31;26.67;;;14.27;;
20421;SDS011;10370;53.102;18.034;2023-05-16T19:21:56;41.22;;;16.88;;
20421;SDS011;10370;53.102;18.034;2023-05-16T19:27:22;36.03;;;15.75;;
20421;SDS011;10370;53.102;18.034;2023-05-16T19:32:45;40.40;;;20.00;;
20421;SDS011;10370;53.102;18.034;2023-05-16T19:38:09;26.27;;;14.00;;
20421;SDS011;10370;53.102;18.034;2023-05-16T19:43:31;30.33;;;14.88;;
20421;SDS011;10370;53.102;18.034;2023-05-16T19:48:55;27.20;;;13.77;;
20421;SDS011;10370;53.102;18.034;2023-05-16T19:54:17;27.73;;;14.43;;
20421;SDS011;10370;53.102;18.034;2023-05-16T19:59:41;33.40;;;14.38;;
20421;SDS011;10370;53.102;18.034;2023-05-16T20:05:05;26.00;;;13.77;;
20421;SDS011;10370;53.102;18.034;2023-05-16T20:10:28;27.17;;;13.55;;
20421;SDS011;10370;53.102;18.034;2023-05-16T20:15:55;27.08;;;14.93;;
20421;SDS011;10370;53.102;18.034;2023-05-16T20:21:17;34.20;;;16.02;;
20421;SDS011;10370;53.102;18.034;2023-05-16T20:26:42;34.97;;;16.35;;
20421;SDS011;10370;53.102;18.034;2023-05-16T20:32:07;26.52;;;14.20;;
20421;SDS011;10370;53.102;18.034;2023-05-16T20:37:30;29.25;;;12.98;;
20421;SDS011;10370;53.102;18.034;2023-05-16T20:42:52;30.50;;;13.52;;
20421;SDS011;10370;53.102;18.034;2023-05-16T20:48:17;28.52;;;13.52;;
20421;SDS011;10370;53.102;18.034;2023-05-16T20:53:44;27.85;;;12.55;;
20421;SDS011;10370;53.102;18.034;2023-05-16T20:59:08;25.40;;;14.70;;
20421;SDS011;10370;53.102;18.034;2023-05-16T21:04:35;25.25;;;14.13;;
20421;SDS011;10370;53.102;18.034;2023-05-16T21:09:58;27.55;;;14.18;;
20421;SDS011;10370;53.102;18.034;2023-05-16T21:15:19;25.65;;;13.63;;
20421;SDS011;10370;53.102;18.034;2023-05-16T21:20:45;27.52;;;14.40;;
20421;SDS011;10370;53.102;18.034;2023-05-16T21:26:12;27.88;;;14.05;;
20421;SDS011;10370;53.102;18.034;2023-05-16T21:31:35;28.60;;;13.88;;
20421;SDS011;10370;53.102;18.034;2023-05-16T21:36:58;27.73;;;14.77;;
20421;SDS011;10370;53.102;18.034;2023-05-16T21:42:20;28.90;;;14.93;;
20421;SDS011;10370;53.102;18.034;2023-05-16T21:47:43;28.17;;;15.15;;
20421;SDS011;10370;53.102;18.034;2023-05-16T21:53:06;33.72;;;16.55;;
20421;SDS011;10370;53.102;18.034;2023-05-16T21:58:29;34.25;;;15.15;;
20421;SDS011;10370;53.102;18.034;2023-05-16T22:03:52;26.77;;;15.48;;
20421;SDS011;10370;53.102;18.034;2023-05-16T22:09:17;27.85;;;14.93;;
20421;SDS011;10370;53.102;18.034;2023-05-16T22:14:40;23.90;;;14.43;;
20421;SDS011;10370;53.102;18.034;2023-05-16T22:20:06;26.48;;;14.27;;
20421;SDS011;10370;53.102;18.034;2023-05-16T22:25:29;25.27;;;15.07;;
20421;SDS011;10370;53.102;18.034;2023-05-16T22:30:55;26.40;;;15.27;;
20421;SDS011;10370;53.102;18.034;2023-05-16T22:36:21;31.33;;;14.65;;
20421;SDS011;10370;53.102;18.034;2023-05-16T22:41:46;31.65;;;15.52;;
20421;SDS011;10370;53.102;18.034;2023-05-16T22:47:10;25.30;;;14.55;;
20421;SDS011;10370;53.102;18.034;2023-05-16T22:52:38;25.90;;;14.98;;
20421;SDS011;10370;53.102;18.034;2023-05-16T22:58:00;26.25;;;15.05;;
20421;SDS011;10370;53.102;18.034;2023-05-16T23:03:23;29.08;;;14.05;;
20421;SDS011;10370;53.102;18.034;2023-05-16T23:08:53;29.70;;;14.35;;
20421;SDS011;10370;53.102;18.034;2023-05-16T23:14:16;23.40;;;14.23;;
20421;SDS011;10370;53.102;18.034;2023-05-16T23:19:39;22.75;;;13.80;;
20421;SDS011;10370;53.102;18.034;2023-05-16T23:25:03;23.55;;;13.52;;
20421;SDS011;10370;53.102;18.034;2023-05-16T23:30:28;29.08;;;14.23;;
20421;SDS011;10370;53.102;18.034;2023-05-16T23:35:53;26.23;;;13.60;;
20421;SDS011;10370;53.102;18.034;2023-05-16T23:41:16;22.33;;;13.23;;
20421;SDS011;10370;53.102;18.034;2023-05-16T23:46:39;22.45;;;13.38;;
20421;SDS011;10370;53.102;18.034;2023-05-16T23:52:02;22.70;;;13.45;;
20421;SDS011;10370;53.102;18.034;2023-05-16T23:57:27;24.10;;;13.95;;
